sensor_id;sensor_type;location;lat;lon;timestamp;P1;durP1;ratioP1;P2;durP2;ratioP2
37445;SDS011;23307;51.136;14.942;2022-08-04T00:01:40;3.60;;;3.30;;
37445;SDS011;23307;51.136;14.942;2022-08-04T00:06:59;4.13;;;3.63;;
37445;SDS011;23307;51.136;14.942;2022-08-04T00:09:48;4.70;;;2.78;;
37445;SDS011;23307;51.136;14.942;2022-08-04T00:12:28;7.07;;;3.55;;
37445;SDS011;23307;51.136;14.942;2022-08-04T00:14:57;3.88;;;3.40;;
37445;SDS011;23307;51.136;14.942;2022-08-04T00:17:28;7.10;;;3.42;;
37445;SDS011;23307;51.136;14.942;2022-08-04T00:20:00;5.40;;;3.47;;
37445;SDS011;23307;51.136;14.942;2022-08-04T00:22:28;7.95;;;3.55;;
37445;SDS011;23307;51.136;14.942;2022-08-04T00:24:55;4.07;;;3.67;;
37445;SDS011;23307;51.136;14.942;2022-08-04T00:27:21;4.53;;;3.75;;
37445;SDS011;23307;51.136;14.942;2022-08-04T00:29:47;4.50;;;3.33;;
37445;SDS011;23307;51.136;14.942;2022-08-04T00:32:13;5.88;;;3.50;;
37445;SDS011;23307;51.136;14.942;2022-08-04T00:34:40;5.13;;;3.55;;
37445;SDS011;23307;51.136;14.942;2022-08-04T00:37:06;7.35;;;3.30;;
37445;SDS011;23307;51.136;14.942;2022-08-04T00:39:31;5.43;;;3.55;;
37445;SDS011;23307;51.136;14.942;2022-08-04T00:52:40;5.60;;;3.30;;
37445;SDS011;23307;51.136;14.942;2022-08-04T00:58:17;4.75;;;3.40;;
37445;SDS011;23307;51.136;14.942;2022-08-04T01:01:09;5.60;;;3.65;;
37445;SDS011;23307;51.136;14.942;2022-08-04T01:03:53;5.53;;;3.50;;
37445;SDS011;23307;51.136;14.942;2022-08-04T01:09:33;3.55;;;3.20;;
37445;SDS011;23307;51.136;14.942;2022-08-04T01:12:40;8.52;;;3.50;;
37445;SDS011;23307;51.136;14.942;2022-08-04T01:15:22;5.07;;;3.47;;
37445;SDS011;23307;51.136;14.942;2022-08-04T01:18:08;4.80;;;2.97;;
37445;SDS011;23307;51.136;14.942;2022-08-04T01:29:20;3.63;;;2.97;;
37445;SDS011;23307;51.136;14.942;2022-08-04T01:34:34;3.08;;;2.67;;
37445;SDS011;23307;51.136;14.942;2022-08-04T01:40:08;3.65;;;3.17;;
37445;SDS011;23307;51.136;14.942;2022-08-04T01:42:38;4.47;;;2.75;;
37445;SDS011;23307;51.136;14.942;2022-08-04T01:45:08;3.72;;;2.70;;
37445;SDS011;23307;51.136;14.942;2022-08-04T01:47:35;4.07;;;2.97;;
37445;SDS011;23307;51.136;14.942;2022-08-04T01:50:09;7.93;;;3.17;;
37445;SDS011;23307;51.136;14.942;2022-08-04T01:52:37;3.22;;;2.90;;
37445;SDS011;23307;51.136;14.942;2022-08-04T01:55:04;4.70;;;3.17;;
37445;SDS011;23307;51.136;14.942;2022-08-04T01:57:34;5.82;;;2.88;;
37445;SDS011;23307;51.136;14.942;2022-08-04T02:00:02;5.25;;;2.92;;
37445;SDS011;23307;51.136;14.942;2022-08-04T02:02:28;4.80;;;3.40;;
37445;SDS011;23307;51.136;14.942;2022-08-04T02:04:54;3.92;;;2.50;;
37445;SDS011;23307;51.136;14.942;2022-08-04T02:15:45;3.20;;;2.85;;
37445;SDS011;23307;51.136;14.942;2022-08-04T02:18:32;6.22;;;2.53;;
37445;SDS011;23307;51.136;14.942;2022-08-04T02:21:10;4.25;;;2.78;;
37445;SDS011;23307;51.136;14.942;2022-08-04T02:23:39;3.85;;;2.50;;
37445;SDS011;23307;51.136;14.942;2022-08-04T02:26:10;2.88;;;2.60;;
37445;SDS011;23307;51.136;14.942;2022-08-04T02:28:46;4.22;;;2.78;;
37445;SDS011;23307;51.136;14.942;2022-08-04T02:36:34;4.22;;;2.85;;
37445;SDS011;23307;51.136;14.942;2022-08-04T02:39:03;9.73;;;2.63;;
37445;SDS011;23307;51.136;14.942;2022-08-04T02:41:30;4.53;;;2.45;;
37445;SDS011;23307;51.136;14.942;2022-08-04T02:43:58;3.13;;;2.45;;
37445;SDS011;23307;51.136;14.942;2022-08-04T02:46:29;3.88;;;2.50;;
37445;SDS011;23307;51.136;14.942;2022-08-04T02:48:55;3.67;;;2.50;;
37445;SDS011;23307;51.136;14.942;2022-08-04T02:51:22;3.15;;;2.58;;
37445;SDS011;23307;51.136;14.942;2022-08-04T02:53:52;2.40;;;2.20;;
37445;SDS011;23307;51.136;14.942;2022-08-04T02:56:19;2.92;;;2.70;;
37445;SDS011;23307;51.136;14.942;2022-08-04T02:58:48;2.40;;;2.20;;
37445;SDS011;23307;51.136;14.942;2022-08-04T03:01:17;3.47;;;1.98;;
37445;SDS011;23307;51.136;14.942;2022-08-04T03:08:46;3.28;;;2.28;;
37445;SDS011;23307;51.136;14.942;2022-08-04T03:11:27;7.93;;;2.50;;
37445;SDS011;23307;51.136;14.942;2022-08-04T03:14:21;2.58;;;2.38;;
37445;SDS011;23307;51.136;14.942;2022-08-04T03:19:57;3.25;;;2.60;;
37445;SDS011;23307;51.136;14.942;2022-08-04T03:23:05;4.10;;;2.42;;
37445;SDS011;23307;51.136;14.942;2022-08-04T03:25:54;5.30;;;2.50;;
37445;SDS011;23307;51.136;14.942;2022-08-04T03:45:52;2.70;;;2.50;;
37445;SDS011;23307;51.136;14.942;2022-08-04T03:54:51;4.47;;;2.83;;
37445;SDS011;23307;51.136;14.942;2022-08-04T04:06:33;6.45;;;2.72;;
37445;SDS011;23307;51.136;14.942;2022-08-04T04:09:36;4.93;;;2.47;;
37445;SDS011;23307;51.136;14.942;2022-08-04T04:12:21;5.97;;;2.67;;
37445;SDS011;23307;51.136;14.942;2022-08-04T04:15:13;5.55;;;2.80;;
37445;SDS011;23307;51.136;14.942;2022-08-04T04:17:51;3.33;;;2.50;;
37445;SDS011;23307;51.136;14.942;2022-08-04T04:32:00;3.20;;;2.75;;
37445;SDS011;23307;51.136;14.942;2022-08-04T04:45:59;3.25;;;2.60;;
37445;SDS011;23307;51.136;14.942;2022-08-04T04:48:41;3.47;;;2.30;;
37445;SDS011;23307;51.136;14.942;2022-08-04T04:51:32;4.03;;;2.70;;
37445;SDS011;23307;51.136;14.942;2022-08-04T04:54:12;4.88;;;2.40;;
37445;SDS011;23307;51.136;14.942;2022-08-04T04:57:35;5.45;;;2.83;;
37445;SDS011;23307;51.136;14.942;2022-08-04T05:00:01;2.80;;;2.50;;
37445;SDS011;23307;51.136;14.942;2022-08-04T05:02:40;3.97;;;2.40;;
37445;SDS011;23307;51.136;14.942;2022-08-04T05:13:19;3.80;;;2.42;;
37445;SDS011;23307;51.136;14.942;2022-08-04T05:16:04;5.82;;;2.58;;
37445;SDS011;23307;51.136;14.942;2022-08-04T05:19:02;2.60;;;2.40;;
37445;SDS011;23307;51.136;14.942;2022-08-04T05:24:27;6.07;;;2.45;;
37445;SDS011;23307;51.136;14.942;2022-08-04T05:26:59;5.38;;;2.22;;
37445;SDS011;23307;51.136;14.942;2022-08-04T05:29:33;2.30;;;2.15;;
37445;SDS011;23307;51.136;14.942;2022-08-04T05:32:03;2.30;;;2.10;;
37445;SDS011;23307;51.136;14.942;2022-08-04T05:34:35;5.97;;;2.35;;
37445;SDS011;23307;51.136;14.942;2022-08-04T05:37:07;8.43;;;2.60;;
37445;SDS011;23307;51.136;14.942;2022-08-04T05:39:41;4.03;;;2.40;;
37445;SDS011;23307;51.136;14.942;2022-08-04T05:42:10;2.60;;;2.40;;
37445;SDS011;23307;51.136;14.942;2022-08-04T05:44:36;4.82;;;2.38;;
37445;SDS011;23307;51.136;14.942;2022-08-04T05:47:02;2.92;;;2.30;;
37445;SDS011;23307;51.136;14.942;2022-08-04T05:49:30;5.65;;;2.50;;
37445;SDS011;23307;51.136;14.942;2022-08-04T05:51:58;3.70;;;2.40;;
37445;SDS011;23307;51.136;14.942;2022-08-04T05:54:26;2.60;;;2.33;;
37445;SDS011;23307;51.136;14.942;2022-08-04T05:56:53;4.82;;;2.50;;
37445;SDS011;23307;51.136;14.942;2022-08-04T05:59:20;5.75;;;2.50;;
37445;SDS011;23307;51.136;14.942;2022-08-04T06:01:49;3.55;;;2.40;;
37445;SDS011;23307;51.136;14.942;2022-08-04T06:04:16;3.53;;;2.10;;
37445;SDS011;23307;51.136;14.942;2022-08-04T06:06:43;3.33;;;2.17;;
37445;SDS011;23307;51.136;14.942;2022-08-04T06:09:10;4.50;;;2.25;;
37445;SDS011;23307;51.136;14.942;2022-08-04T06:11:36;3.55;;;2.30;;
37445;SDS011;23307;51.136;14.942;2022-08-04T06:14:04;5.20;;;2.05;;
37445;SDS011;23307;51.136;14.942;2022-08-04T06:16:37;3.50;;;2.00;;
37445;SDS011;23307;51.136;14.942;2022-08-04T06:19:07;4.25;;;2.42;;
37445;SDS011;23307;51.136;14.942;2022-08-04T06:21:39;4.78;;;2.55;;
37445;SDS011;23307;51.136;14.942;2022-08-04T06:24:09;4.50;;;2.75;;
37445;SDS011;23307;51.136;14.942;2022-08-04T06:26:39;3.70;;;2.15;;
37445;SDS011;23307;51.136;14.942;2022-08-04T06:29:06;4.55;;;2.17;;
37445;SDS011;23307;51.136;14.942;2022-08-04T06:31:41;3.03;;;2.20;;
37445;SDS011;23307;51.136;14.942;2022-08-04T06:34:11;2.35;;;2.15;;
37445;SDS011;23307;51.136;14.942;2022-08-04T06:36:38;2.55;;;2.35;;
37445;SDS011;23307;51.136;14.942;2022-08-04T06:39:05;9.07;;;2.53;;
37445;SDS011;23307;51.136;14.942;2022-08-04T06:41:32;6.97;;;2.45;;
37445;SDS011;23307;51.136;14.942;2022-08-04T06:43:58;4.45;;;2.47;;
37445;SDS011;23307;51.136;14.942;2022-08-04T06:46:26;2.80;;;2.13;;
37445;SDS011;23307;51.136;14.942;2022-08-04T06:48:53;3.83;;;2.38;;
37445;SDS011;23307;51.136;14.942;2022-08-04T06:51:20;3.30;;;2.20;;
37445;SDS011;23307;51.136;14.942;2022-08-04T06:53:47;4.90;;;2.30;;
37445;SDS011;23307;51.136;14.942;2022-08-04T06:56:13;2.40;;;2.20;;
37445;SDS011;23307;51.136;14.942;2022-08-04T06:58:40;5.03;;;2.40;;
37445;SDS011;23307;51.136;14.942;2022-08-04T07:01:07;2.63;;;2.20;;
37445;SDS011;23307;51.136;14.942;2022-08-04T07:03:33;4.55;;;2.20;;
37445;SDS011;23307;51.136;14.942;2022-08-04T07:06:00;4.35;;;2.40;;
37445;SDS011;23307;51.136;14.942;2022-08-04T07:08:26;3.88;;;2.22;;
37445;SDS011;23307;51.136;14.942;2022-08-04T07:10:52;2.33;;;2.13;;
37445;SDS011;23307;51.136;14.942;2022-08-04T07:13:20;3.60;;;2.08;;
37445;SDS011;23307;51.136;14.942;2022-08-04T07:15:46;6.10;;;2.10;;
37445;SDS011;23307;51.136;14.942;2022-08-04T07:18:13;4.93;;;2.50;;
37445;SDS011;23307;51.136;14.942;2022-08-04T07:20:43;4.28;;;2.03;;
37445;SDS011;23307;51.136;14.942;2022-08-04T07:23:10;5.28;;;2.10;;
37445;SDS011;23307;51.136;14.942;2022-08-04T07:25:41;2.40;;;2.10;;
37445;SDS011;23307;51.136;14.942;2022-08-04T07:28:07;5.18;;;1.98;;
37445;SDS011;23307;51.136;14.942;2022-08-04T07:30:33;3.08;;;2.10;;
37445;SDS011;23307;51.136;14.942;2022-08-04T07:32:59;3.35;;;1.80;;
37445;SDS011;23307;51.136;14.942;2022-08-04T07:35:26;2.17;;;1.90;;
37445;SDS011;23307;51.136;14.942;2022-08-04T07:37:53;2.08;;;1.85;;
37445;SDS011;23307;51.136;14.942;2022-08-04T07:40:18;6.57;;;2.17;;
37445;SDS011;23307;51.136;14.942;2022-08-04T07:42:44;1.90;;;1.70;;
37445;SDS011;23307;51.136;14.942;2022-08-04T07:45:10;2.20;;;2.00;;
37445;SDS011;23307;51.136;14.942;2022-08-04T07:47:36;2.00;;;1.77;;
37445;SDS011;23307;51.136;14.942;2022-08-04T07:50:04;1.95;;;1.85;;
37445;SDS011;23307;51.136;14.942;2022-08-04T07:52:33;3.45;;;1.65;;
37445;SDS011;23307;51.136;14.942;2022-08-04T07:55:00;2.95;;;1.77;;
37445;SDS011;23307;51.136;14.942;2022-08-04T07:57:27;5.25;;;2.08;;
37445;SDS011;23307;51.136;14.942;2022-08-04T07:59:52;2.67;;;2.00;;
37445;SDS011;23307;51.136;14.942;2022-08-04T08:02:18;3.55;;;1.70;;
37445;SDS011;23307;51.136;14.942;2022-08-04T08:04:46;2.28;;;1.60;;
37445;SDS011;23307;51.136;14.942;2022-08-04T08:07:12;4.63;;;1.92;;
37445;SDS011;23307;51.136;14.942;2022-08-04T08:09:37;3.88;;;1.83;;
37445;SDS011;23307;51.136;14.942;2022-08-04T08:12:03;2.67;;;1.80;;
37445;SDS011;23307;51.136;14.942;2022-08-04T08:14:31;1.83;;;1.73;;
37445;SDS011;23307;51.136;14.942;2022-08-04T08:16:59;3.65;;;1.98;;
37445;SDS011;23307;51.136;14.942;2022-08-04T08:19:28;2.40;;;2.20;;
37445;SDS011;23307;51.136;14.942;2022-08-04T08:21:54;3.25;;;2.00;;
37445;SDS011;23307;51.136;14.942;2022-08-04T08:24:20;3.95;;;2.05;;
37445;SDS011;23307;51.136;14.942;2022-08-04T08:26:45;2.47;;;1.88;;
37445;SDS011;23307;51.136;14.942;2022-08-04T08:29:11;3.50;;;1.90;;
37445;SDS011;23307;51.136;14.942;2022-08-04T08:31:37;2.55;;;1.98;;
37445;SDS011;23307;51.136;14.942;2022-08-04T08:34:02;5.60;;;1.80;;
37445;SDS011;23307;51.136;14.942;2022-08-04T08:36:36;3.20;;;1.63;;
37445;SDS011;23307;51.136;14.942;2022-08-04T08:39:10;5.22;;;2.10;;
37445;SDS011;23307;51.136;14.942;2022-08-04T08:55:09;4.75;;;2.00;;
37445;SDS011;23307;51.136;14.942;2022-08-04T09:01:15;7.07;;;2.15;;
37445;SDS011;23307;51.136;14.942;2022-08-04T09:04:07;7.13;;;2.10;;
37445;SDS011;23307;51.136;14.942;2022-08-04T09:12:48;5.00;;;1.98;;
37445;SDS011;23307;51.136;14.942;2022-08-04T09:15:33;5.40;;;2.10;;
37445;SDS011;23307;51.136;14.942;2022-08-04T09:18:17;5.72;;;2.20;;
37445;SDS011;23307;51.136;14.942;2022-08-04T09:20:47;6.20;;;2.17;;
37445;SDS011;23307;51.136;14.942;2022-08-04T09:28:50;3.70;;;1.95;;
37445;SDS011;23307;51.136;14.942;2022-08-04T09:31:21;6.45;;;1.80;;
37445;SDS011;23307;51.136;14.942;2022-08-04T09:34:08;3.10;;;2.05;;
37445;SDS011;23307;51.136;14.942;2022-08-04T09:36:39;2.30;;;1.80;;
37445;SDS011;23307;51.136;14.942;2022-08-04T09:44:51;1.70;;;1.60;;
37445;SDS011;23307;51.136;14.942;2022-08-04T09:52:58;4.20;;;1.73;;
37445;SDS011;23307;51.136;14.942;2022-08-04T09:55:57;2.05;;;1.58;;
37445;SDS011;23307;51.136;14.942;2022-08-04T10:01:23;2.28;;;1.70;;
37445;SDS011;23307;51.136;14.942;2022-08-04T10:03:51;2.22;;;1.58;;
37445;SDS011;23307;51.136;14.942;2022-08-04T10:08:59;3.95;;;1.80;;
37445;SDS011;23307;51.136;14.942;2022-08-04T10:14:47;2.40;;;1.60;;
37445;SDS011;23307;51.136;14.942;2022-08-04T10:23:37;4.03;;;2.08;;
37445;SDS011;23307;51.136;14.942;2022-08-04T10:26:24;3.00;;;1.70;;
37445;SDS011;23307;51.136;14.942;2022-08-04T10:29:17;3.00;;;1.80;;
37445;SDS011;23307;51.136;14.942;2022-08-04T10:31:53;4.53;;;1.60;;
37445;SDS011;23307;51.136;14.942;2022-08-04T10:34:36;2.95;;;1.75;;
37445;SDS011;23307;51.136;14.942;2022-08-04T10:37:20;1.52;;;1.42;;
37445;SDS011;23307;51.136;14.942;2022-08-04T10:40:05;1.55;;;1.40;;
37445;SDS011;23307;51.136;14.942;2022-08-04T10:42:56;5.00;;;1.80;;
37445;SDS011;23307;51.136;14.942;2022-08-04T10:45:38;3.00;;;1.70;;
37445;SDS011;23307;51.136;14.942;2022-08-04T10:48:21;2.25;;;1.65;;
37445;SDS011;23307;51.136;14.942;2022-08-04T10:51:01;1.60;;;1.50;;
37445;SDS011;23307;51.136;14.942;2022-08-04T10:53:35;2.88;;;1.77;;
37445;SDS011;23307;51.136;14.942;2022-08-04T10:56:18;2.15;;;1.65;;
37445;SDS011;23307;51.136;14.942;2022-08-04T10:58:55;5.60;;;1.40;;
37445;SDS011;23307;51.136;14.942;2022-08-04T11:01:28;3.47;;;1.60;;
37445;SDS011;23307;51.136;14.942;2022-08-04T11:04:08;3.17;;;1.50;;
37445;SDS011;23307;51.136;14.942;2022-08-04T11:06:57;3.50;;;1.40;;
37445;SDS011;23307;51.136;14.942;2022-08-04T11:09:24;2.33;;;1.40;;
37445;SDS011;23307;51.136;14.942;2022-08-04T11:11:53;2.85;;;1.58;;
37445;SDS011;23307;51.136;14.942;2022-08-04T11:14:35;1.60;;;1.50;;
37445;SDS011;23307;51.136;14.942;2022-08-04T11:17:07;1.92;;;1.35;;
37445;SDS011;23307;51.136;14.942;2022-08-04T11:19:55;3.70;;;1.50;;
37445;SDS011;23307;51.136;14.942;2022-08-04T11:22:27;1.50;;;1.40;;
37445;SDS011;23307;51.136;14.942;2022-08-04T11:27:36;1.50;;;1.40;;
37445;SDS011;23307;51.136;14.942;2022-08-04T11:30:30;3.47;;;1.60;;
37445;SDS011;23307;51.136;14.942;2022-08-04T11:33:22;1.73;;;1.50;;
37445;SDS011;23307;51.136;14.942;2022-08-04T11:36:01;1.70;;;1.40;;
37445;SDS011;23307;51.136;14.942;2022-08-04T11:44:15;1.95;;;1.50;;
37445;SDS011;23307;51.136;14.942;2022-08-04T11:46:46;1.50;;;1.40;;
37445;SDS011;23307;51.136;14.942;2022-08-04T11:49:23;2.25;;;1.33;;
37445;SDS011;23307;51.136;14.942;2022-08-04T11:52:05;2.47;;;1.40;;
37445;SDS011;23307;51.136;14.942;2022-08-04T11:54:33;2.83;;;1.40;;
37445;SDS011;23307;51.136;14.942;2022-08-04T11:56:59;3.95;;;1.50;;
37445;SDS011;23307;51.136;14.942;2022-08-04T11:59:26;1.65;;;1.25;;
37445;SDS011;23307;51.136;14.942;2022-08-04T12:05:00;7.13;;;1.48;;
37445;SDS011;23307;51.136;14.942;2022-08-04T12:07:29;1.60;;;1.40;;
37445;SDS011;23307;51.136;14.942;2022-08-04T12:10:28;1.98;;;1.20;;
37445;SDS011;23307;51.136;14.942;2022-08-04T12:13:08;3.60;;;1.20;;
37445;SDS011;23307;51.136;14.942;2022-08-04T12:16:00;1.50;;;1.30;;
37445;SDS011;23307;51.136;14.942;2022-08-04T12:18:38;3.22;;;1.30;;
37445;SDS011;23307;51.136;14.942;2022-08-04T12:21:17;1.50;;;1.40;;
37445;SDS011;23307;51.136;14.942;2022-08-04T12:24:05;2.17;;;1.30;;
37445;SDS011;23307;51.136;14.942;2022-08-04T12:26:39;4.97;;;1.30;;
37445;SDS011;23307;51.136;14.942;2022-08-04T12:29:12;1.95;;;1.30;;
37445;SDS011;23307;51.136;14.942;2022-08-04T12:31:46;2.75;;;1.40;;
37445;SDS011;23307;51.136;14.942;2022-08-04T12:39:52;2.40;;;1.27;;
37445;SDS011;23307;51.136;14.942;2022-08-04T12:42:26;1.65;;;1.38;;
37445;SDS011;23307;51.136;14.942;2022-08-04T12:44:57;3.28;;;1.40;;
37445;SDS011;23307;51.136;14.942;2022-08-04T12:47:28;1.30;;;1.20;;
37445;SDS011;23307;51.136;14.942;2022-08-04T12:49:58;2.08;;;1.20;;
37445;SDS011;23307;51.136;14.942;2022-08-04T12:52:25;1.67;;;1.33;;
37445;SDS011;23307;51.136;14.942;2022-08-04T12:54:52;2.45;;;1.30;;
37445;SDS011;23307;51.136;14.942;2022-08-04T12:57:19;1.70;;;1.40;;
37445;SDS011;23307;51.136;14.942;2022-08-04T12:59:47;1.67;;;1.25;;
37445;SDS011;23307;51.136;14.942;2022-08-04T13:02:32;1.95;;;1.40;;
37445;SDS011;23307;51.136;14.942;2022-08-04T13:05:03;1.65;;;1.50;;
37445;SDS011;23307;51.136;14.942;2022-08-04T13:07:36;2.55;;;1.20;;
37445;SDS011;23307;51.136;14.942;2022-08-04T13:10:16;2.25;;;1.60;;
37445;SDS011;23307;51.136;14.942;2022-08-04T13:12:50;1.70;;;1.13;;
37445;SDS011;23307;51.136;14.942;2022-08-04T13:15:20;1.73;;;1.27;;
37445;SDS011;23307;51.136;14.942;2022-08-04T13:18:00;2.85;;;1.13;;
37445;SDS011;23307;51.136;14.942;2022-08-04T13:20:30;2.05;;;1.20;;
37445;SDS011;23307;51.136;14.942;2022-08-04T13:23:07;2.85;;;1.23;;
37445;SDS011;23307;51.136;14.942;2022-08-04T13:25:41;3.65;;;1.45;;
37445;SDS011;23307;51.136;14.942;2022-08-04T13:28:13;2.28;;;1.38;;
37445;SDS011;23307;51.136;14.942;2022-08-04T13:30:44;3.85;;;1.40;;
37445;SDS011;23307;51.136;14.942;2022-08-04T13:33:10;1.85;;;1.40;;
37445;SDS011;23307;51.136;14.942;2022-08-04T13:35:41;1.77;;;1.42;;
37445;SDS011;23307;51.136;14.942;2022-08-04T13:38:09;2.28;;;1.50;;
37445;SDS011;23307;51.136;14.942;2022-08-04T13:40:36;1.45;;;1.25;;
37445;SDS011;23307;51.136;14.942;2022-08-04T13:43:05;3.13;;;1.30;;
37445;SDS011;23307;51.136;14.942;2022-08-04T13:45:32;1.75;;;1.20;;
37445;SDS011;23307;51.136;14.942;2022-08-04T13:47:59;2.60;;;1.33;;
37445;SDS011;23307;51.136;14.942;2022-08-04T13:50:27;1.60;;;1.20;;
37445;SDS011;23307;51.136;14.942;2022-08-04T13:52:55;2.05;;;1.70;;
37445;SDS011;23307;51.136;14.942;2022-08-04T13:57:54;3.20;;;1.33;;
37445;SDS011;23307;51.136;14.942;2022-08-04T14:00:22;1.98;;;1.20;;
37445;SDS011;23307;51.136;14.942;2022-08-04T14:03:02;2.22;;;1.10;;
37445;SDS011;23307;51.136;14.942;2022-08-04T14:05:30;2.30;;;1.10;;
37445;SDS011;23307;51.136;14.942;2022-08-04T14:08:03;4.53;;;1.23;;
37445;SDS011;23307;51.136;14.942;2022-08-04T14:10:33;6.18;;;1.40;;
37445;SDS011;23307;51.136;14.942;2022-08-04T14:12:59;2.72;;;1.25;;
37445;SDS011;23307;51.136;14.942;2022-08-04T14:15:39;1.75;;;1.40;;
37445;SDS011;23307;51.136;14.942;2022-08-04T14:18:16;1.63;;;1.20;;
37445;SDS011;23307;51.136;14.942;2022-08-04T14:20:58;1.33;;;1.20;;
37445;SDS011;23307;51.136;14.942;2022-08-04T14:26:15;2.85;;;1.40;;
37445;SDS011;23307;51.136;14.942;2022-08-04T14:28:45;1.63;;;1.20;;
37445;SDS011;23307;51.136;14.942;2022-08-04T14:31:29;2.08;;;1.25;;
37445;SDS011;23307;51.136;14.942;2022-08-04T14:33:54;1.55;;;1.00;;
37445;SDS011;23307;51.136;14.942;2022-08-04T14:36:20;1.98;;;1.25;;
37445;SDS011;23307;51.136;14.942;2022-08-04T14:41:22;2.88;;;1.38;;
37445;SDS011;23307;51.136;14.942;2022-08-04T14:43:54;4.93;;;1.23;;
37445;SDS011;23307;51.136;14.942;2022-08-04T14:46:21;1.20;;;1.10;;
37445;SDS011;23307;51.136;14.942;2022-08-04T14:51:32;5.05;;;1.08;;
37445;SDS011;23307;51.136;14.942;2022-08-04T14:54:04;1.83;;;1.10;;
37445;SDS011;23307;51.136;14.942;2022-08-04T14:56:30;1.40;;;1.17;;
37445;SDS011;23307;51.136;14.942;2022-08-04T14:58:58;4.72;;;1.23;;
37445;SDS011;23307;51.136;14.942;2022-08-04T15:01:24;1.70;;;1.13;;
37445;SDS011;23307;51.136;14.942;2022-08-04T15:03:51;1.80;;;1.02;;
37445;SDS011;23307;51.136;14.942;2022-08-04T15:06:19;2.75;;;1.15;;
37445;SDS011;23307;51.136;14.942;2022-08-04T15:08:46;1.40;;;1.15;;
37445;SDS011;23307;51.136;14.942;2022-08-04T15:11:13;2.95;;;1.20;;
37445;SDS011;23307;51.136;14.942;2022-08-04T15:13:38;1.33;;;1.10;;
37445;SDS011;23307;51.136;14.942;2022-08-04T15:16:04;1.60;;;1.10;;
37445;SDS011;23307;51.136;14.942;2022-08-04T15:18:29;2.00;;;1.25;;
37445;SDS011;23307;51.136;14.942;2022-08-04T15:20:56;1.60;;;1.20;;
37445;SDS011;23307;51.136;14.942;2022-08-04T15:23:22;2.42;;;1.40;;
37445;SDS011;23307;51.136;14.942;2022-08-04T15:25:50;1.33;;;1.20;;
37445;SDS011;23307;51.136;14.942;2022-08-04T15:28:18;1.95;;;1.45;;
37445;SDS011;23307;51.136;14.942;2022-08-04T15:30:47;2.03;;;1.30;;
37445;SDS011;23307;51.136;14.942;2022-08-04T15:33:14;3.88;;;1.20;;
37445;SDS011;23307;51.136;14.942;2022-08-04T15:35:45;2.50;;;1.10;;
37445;SDS011;23307;51.136;14.942;2022-08-04T15:38:15;1.70;;;1.38;;
37445;SDS011;23307;51.136;14.942;2022-08-04T15:41:06;1.20;;;1.10;;
37445;SDS011;23307;51.136;14.942;2022-08-04T15:49:21;3.03;;;1.25;;
37445;SDS011;23307;51.136;14.942;2022-08-04T15:52:01;2.17;;;1.23;;
37445;SDS011;23307;51.136;14.942;2022-08-04T15:54:28;1.13;;;1.10;;
37445;SDS011;23307;51.136;14.942;2022-08-04T15:56:54;1.52;;;1.20;;
37445;SDS011;23307;51.136;14.942;2022-08-04T16:02:29;2.63;;;1.23;;
37445;SDS011;23307;51.136;14.942;2022-08-04T16:07:56;1.63;;;1.10;;
37445;SDS011;23307;51.136;14.942;2022-08-04T16:12:56;1.92;;;1.20;;
37445;SDS011;23307;51.136;14.942;2022-08-04T16:15:35;1.63;;;1.10;;
37445;SDS011;23307;51.136;14.942;2022-08-04T16:18:05;2.15;;;1.20;;
37445;SDS011;23307;51.136;14.942;2022-08-04T16:20:32;1.42;;;1.20;;
37445;SDS011;23307;51.136;14.942;2022-08-04T16:23:02;1.60;;;1.50;;
37445;SDS011;23307;51.136;14.942;2022-08-04T16:25:43;2.50;;;1.50;;
37445;SDS011;23307;51.136;14.942;2022-08-04T16:31:02;1.85;;;1.40;;
37445;SDS011;23307;51.136;14.942;2022-08-04T16:33:29;1.55;;;1.45;;
37445;SDS011;23307;51.136;14.942;2022-08-04T16:35:56;1.75;;;1.52;;
37445;SDS011;23307;51.136;14.942;2022-08-04T16:38:22;2.42;;;1.40;;
37445;SDS011;23307;51.136;14.942;2022-08-04T16:40:55;1.75;;;1.30;;
37445;SDS011;23307;51.136;14.942;2022-08-04T16:43:22;2.10;;;1.13;;
37445;SDS011;23307;51.136;14.942;2022-08-04T16:46:01;2.03;;;1.30;;
37445;SDS011;23307;51.136;14.942;2022-08-04T16:48:28;2.15;;;1.33;;
37445;SDS011;23307;51.136;14.942;2022-08-04T16:50:57;1.63;;;1.42;;
37445;SDS011;23307;51.136;14.942;2022-08-04T16:53:31;1.95;;;1.30;;
37445;SDS011;23307;51.136;14.942;2022-08-04T16:56:01;2.17;;;1.35;;
37445;SDS011;23307;51.136;14.942;2022-08-04T16:58:29;3.55;;;1.60;;
37445;SDS011;23307;51.136;14.942;2022-08-04T17:01:05;1.92;;;1.45;;
37445;SDS011;23307;51.136;14.942;2022-08-04T17:03:31;1.73;;;1.30;;
37445;SDS011;23307;51.136;14.942;2022-08-04T17:06:03;2.03;;;1.30;;
37445;SDS011;23307;51.136;14.942;2022-08-04T17:08:30;3.38;;;1.50;;
37445;SDS011;23307;51.136;14.942;2022-08-04T17:10:57;2.20;;;1.40;;
37445;SDS011;23307;51.136;14.942;2022-08-04T17:13:27;2.05;;;1.38;;
37445;SDS011;23307;51.136;14.942;2022-08-04T17:16:01;3.28;;;1.40;;
37445;SDS011;23307;51.136;14.942;2022-08-04T17:18:32;2.70;;;1.40;;
37445;SDS011;23307;51.136;14.942;2022-08-04T17:21:01;2.25;;;1.30;;
37445;SDS011;23307;51.136;14.942;2022-08-04T17:23:31;2.00;;;1.73;;
37445;SDS011;23307;51.136;14.942;2022-08-04T17:26:06;3.00;;;1.42;;
37445;SDS011;23307;51.136;14.942;2022-08-04T17:28:33;1.67;;;1.52;;
37445;SDS011;23307;51.136;14.942;2022-08-04T17:31:00;4.38;;;1.70;;
37445;SDS011;23307;51.136;14.942;2022-08-04T17:33:26;1.85;;;1.40;;
37445;SDS011;23307;51.136;14.942;2022-08-04T17:35:56;3.15;;;1.55;;
37445;SDS011;23307;51.136;14.942;2022-08-04T17:38:29;1.98;;;1.60;;
37445;SDS011;23307;51.136;14.942;2022-08-04T17:40:58;3.15;;;1.50;;
37445;SDS011;23307;51.136;14.942;2022-08-04T17:43:33;3.65;;;1.45;;
37445;SDS011;23307;51.136;14.942;2022-08-04T17:46:18;3.55;;;1.50;;
37445;SDS011;23307;51.136;14.942;2022-08-04T17:49:03;4.85;;;1.30;;
37445;SDS011;23307;51.136;14.942;2022-08-04T17:51:39;3.97;;;1.75;;
37445;SDS011;23307;51.136;14.942;2022-08-04T17:54:07;3.53;;;1.70;;
37445;SDS011;23307;51.136;14.942;2022-08-04T17:56:44;2.72;;;1.63;;
37445;SDS011;23307;51.136;14.942;2022-08-04T17:59:18;3.00;;;1.50;;
37445;SDS011;23307;51.136;14.942;2022-08-04T18:01:47;2.63;;;1.58;;
37445;SDS011;23307;51.136;14.942;2022-08-04T18:06:54;3.15;;;1.70;;
37445;SDS011;23307;51.136;14.942;2022-08-04T18:09:24;2.80;;;1.80;;
37445;SDS011;23307;51.136;14.942;2022-08-04T18:11:52;2.22;;;1.60;;
37445;SDS011;23307;51.136;14.942;2022-08-04T18:14:21;2.78;;;1.70;;
37445;SDS011;23307;51.136;14.942;2022-08-04T18:16:46;2.22;;;1.40;;
37445;SDS011;23307;51.136;14.942;2022-08-04T18:19:13;2.67;;;1.60;;
37445;SDS011;23307;51.136;14.942;2022-08-04T18:21:39;2.03;;;1.67;;
37445;SDS011;23307;51.136;14.942;2022-08-04T18:24:04;1.65;;;1.55;;
37445;SDS011;23307;51.136;14.942;2022-08-04T18:26:30;3.88;;;1.88;;
37445;SDS011;23307;51.136;14.942;2022-08-04T18:28:56;4.60;;;1.88;;
37445;SDS011;23307;51.136;14.942;2022-08-04T18:31:21;1.88;;;1.70;;
37445;SDS011;23307;51.136;14.942;2022-08-04T18:33:47;2.80;;;1.77;;
37445;SDS011;23307;51.136;14.942;2022-08-04T18:36:13;1.92;;;1.67;;
37445;SDS011;23307;51.136;14.942;2022-08-04T18:38:38;4.55;;;1.90;;
37445;SDS011;23307;51.136;14.942;2022-08-04T18:41:04;2.53;;;1.77;;
37445;SDS011;23307;51.136;14.942;2022-08-04T18:43:29;2.05;;;1.55;;
37445;SDS011;23307;51.136;14.942;2022-08-04T18:45:55;2.65;;;1.60;;
37445;SDS011;23307;51.136;14.942;2022-08-04T18:48:21;2.30;;;1.63;;